Ocean Liberty — WDE2762 — position and weather

sailwx.info

Track history (hours):
 
Tides and Currents Weather Stations Pressure Air Temp Water Temp Dewpoint Dewpoint Depression Visibility Wind Speed Wind Dir Waves Ship Positions

Ocean Liberty

Owner: Marine Spill Response Corporation, Long Beach, CA. More information available from US FCC via Universal Licensing System and Coast Guard Vessel Documentation Center.

Last reported at 2016-May-26 18:23 UTC. Time now 2016-May-27 04:34 UTC.
Position N 33°46' W 118°13'.

; draft 2.9 m.

Type: Pollution control. MMSI: 367329330.

Date/timePositionNaut miles runAvg speedWind from/ knotsBaromVisibWave heightAir tempDewpointWater temp
2016-May-26 18:23N 33°46' W 118°13'0 0.0
2016-May-25 20:26N 33°46' W 118°13'0 0.0
2016-May-25 19:32N 33°46' W 118°13'0 0.0
2016-May-25 18:32N 33°46' W 118°13'0 0.0
2016-May-25 17:32N 33°46' W 118°13'0 0.0
2016-May-25 16:32N 33°46' W 118°13'0 0.0
2016-May-25 15:32N 33°46' W 118°13'0 0.0
2016-May-25 14:32N 33°46' W 118°13'0 0.0
2016-May-25 13:32N 33°46' W 118°13'0 0.0
2016-May-25 12:32N 33°46' W 118°13'0 0.0
2016-May-25 11:32N 33°46' W 118°13'0 0.0
2016-May-25 10:32N 33°46' W 118°13'0 0.0
2016-May-25 09:31N 33°46' W 118°13'0 0.0
2016-May-25 08:31N 33°46' W 118°13'0 0.0
2016-May-25 07:31N 33°46' W 118°13'0 0.0
2016-May-25 06:31N 33°46' W 118°13'0 0.0
2016-May-25 05:31N 33°46' W 118°13'0 0.0
2016-May-25 04:31N 33°46' W 118°13'0 0.0
2016-May-25 03:31N 33°46' W 118°13'0 0.0
2016-May-25 02:31N 33°46' W 118°13'0 0.0
2016-May-25 01:31N 33°46' W 118°13'0 0.0
2016-May-25 00:31N 33°46' W 118°13'0 0.0
2016-May-24 23:31N 33°46' W 118°13'0 0.0
2016-May-24 22:31N 33°46' W 118°13'0 0.0
2016-May-24 21:31N 33°46' W 118°13'0 0.0
2016-May-24 20:31N 33°46' W 118°13'0 0.0
2016-May-24 19:31N 33°46' W 118°13'0 0.0
2016-May-24 18:31N 33°46' W 118°13'0 0.0
2016-May-24 17:34N 33°46' W 118°13'2 2.3
2016-May-24 16:33N 33°44' W 118°14'0 0.2
2016-May-24 15:33N 33°44' W 118°14'2 2.0
2016-May-24 14:34N 33°46' W 118°13'1 0.7
2016-May-24 13:33N 33°46' W 118°13'0 0.0
2016-May-24 12:33N 33°46' W 118°13'0 0.0
2016-May-24 11:33N 33°46' W 118°13'0 0.0
2016-May-24 10:30N 33°46' W 118°13'0 0.0
2016-May-24 09:33N 33°46' W 118°13'0 0.0
2016-May-24 08:27N 33°46' W 118°13'0 0.0
2016-May-24 07:33N 33°46' W 118°13'0 0.0
2016-May-24 06:33N 33°46' W 118°13'0 0.0
2016-May-24 05:33N 33°46' W 118°13'0 0.0
2016-May-24 04:33N 33°46' W 118°13'0 0.0
2016-May-24 03:33N 33°46' W 118°13'  
2016-May-20 18:04N 33°46' W 118°13'0 0.0
2016-May-20 17:31N 33°46' W 118°13'0 0.0
2016-May-20 16:31N 33°46' W 118°13'0 0.0
2016-May-20 15:31N 33°46' W 118°13'0 0.0
2016-May-20 14:28N 33°46' W 118°13'0 0.0
2016-May-20 13:31N 33°46' W 118°13'0 0.0
2016-May-20 12:31N 33°46' W 118°13'0 0.0
2016-May-20 11:31N 33°46' W 118°13'0 0.0
2016-May-20 10:31N 33°46' W 118°13'0 0.0
2016-May-20 09:31N 33°46' W 118°13'0 0.0
2016-May-20 08:31N 33°46' W 118°13'0 0.0
2016-May-20 07:31N 33°46' W 118°13'0 0.0
2016-May-20 06:31N 33°46' W 118°13'0 0.0
2016-May-20 05:25N 33°46' W 118°13'0 0.0
2016-May-20 04:34N 33°46' W 118°13'0 0.0
2016-May-20 03:33N 33°46' W 118°13'0 0.0
2016-May-20 02:33N 33°46' W 118°13'0 0.0
2016-May-20 01:30N 33°46' W 118°13'0 0.0
2016-May-20 00:33N 33°46' W 118°13'0 0.0
2016-May-19 23:33N 33°46' W 118°13'0 0.0
2016-May-19 22:33N 33°46' W 118°13'0 0.0
2016-May-19 21:30N 33°46' W 118°13'0 0.0
2016-May-19 20:33N 33°46' W 118°13'0 0.3
2016-May-19 19:33N 33°46' W 118°13'12 3.6
2016-May-19 16:17N 33°49' W 118°27'1 0.9
2016-May-19 15:33N 33°49' W 118°26'0 0.3
2016-May-19 14:33N 33°49' W 118°26'13 5.4
2016-May-19 12:15N 33°40' W 118°15'6 7.9
2016-May-19 11:30N 33°46' W 118°13'1 0.7
2016-May-19 10:33N 33°46' W 118°13'0 0.0
2016-May-19 09:33N 33°46' W 118°13'0 0.0
2016-May-19 08:33N 33°46' W 118°13'  
Track history (hours):
 
Tides and Currents Weather Stations Pressure Air Temp Water Temp Dewpoint Dewpoint Depression Visibility Wind Speed Wind Dir Waves Ship Positions

Ocean Liberty

Owner: Marine Spill Response Corporation, Long Beach, CA. More information available from US FCC via Universal Licensing System and Coast Guard Vessel Documentation Center.

Last reported at 2016-May-26 18:23 UTC. Time now 2016-May-27 04:34 UTC.
Position N 33°46' W 118°13'.

; draft 2.9 m.

Type: Pollution control. MMSI: 367329330.

Date/timePositionNaut miles runAvg speedWind from/ knotsBaromVisibWave heightAir tempDewpointWater temp
2016-May-26 18:23N 33°46' W 118°13'0 0.0
2016-May-25 20:26N 33°46' W 118°13'0 0.0
2016-May-25 19:32N 33°46' W 118°13'0 0.0
2016-May-25 18:32N 33°46' W 118°13'0 0.0
2016-May-25 17:32N 33°46' W 118°13'0 0.0
2016-May-25 16:32N 33°46' W 118°13'0 0.0
2016-May-25 15:32N 33°46' W 118°13'0 0.0
2016-May-25 14:32N 33°46' W 118°13'0 0.0
2016-May-25 13:32N 33°46' W 118°13'0 0.0
2016-May-25 12:32N 33°46' W 118°13'0 0.0
2016-May-25 11:32N 33°46' W 118°13'0 0.0
2016-May-25 10:32N 33°46' W 118°13'0 0.0
2016-May-25 09:31N 33°46' W 118°13'0 0.0
2016-May-25 08:31N 33°46' W 118°13'0 0.0
2016-May-25 07:31N 33°46' W 118°13'0 0.0
2016-May-25 06:31N 33°46' W 118°13'0 0.0
2016-May-25 05:31N 33°46' W 118°13'0 0.0
2016-May-25 04:31N 33°46' W 118°13'0 0.0
2016-May-25 03:31N 33°46' W 118°13'0 0.0
2016-May-25 02:31N 33°46' W 118°13'0 0.0
2016-May-25 01:31N 33°46' W 118°13'0 0.0
2016-May-25 00:31N 33°46' W 118°13'0 0.0
2016-May-24 23:31N 33°46' W 118°13'0 0.0
2016-May-24 22:31N 33°46' W 118°13'0 0.0
2016-May-24 21:31N 33°46' W 118°13'0 0.0
2016-May-24 20:31N 33°46' W 118°13'0 0.0
2016-May-24 19:31N 33°46' W 118°13'0 0.0
2016-May-24 18:31N 33°46' W 118°13'0 0.0
2016-May-24 17:34N 33°46' W 118°13'2 2.3
2016-May-24 16:33N 33°44' W 118°14'0 0.2
2016-May-24 15:33N 33°44' W 118°14'2 2.0
2016-May-24 14:34N 33°46' W 118°13'1 0.7
2016-May-24 13:33N 33°46' W 118°13'0 0.0
2016-May-24 12:33N 33°46' W 118°13'0 0.0
2016-May-24 11:33N 33°46' W 118°13'0 0.0
2016-May-24 10:30N 33°46' W 118°13'0 0.0
2016-May-24 09:33N 33°46' W 118°13'0 0.0
2016-May-24 08:27N 33°46' W 118°13'0 0.0
2016-May-24 07:33N 33°46' W 118°13'0 0.0
2016-May-24 06:33N 33°46' W 118°13'0 0.0
2016-May-24 05:33N 33°46' W 118°13'0 0.0
2016-May-24 04:33N 33°46' W 118°13'0 0.0
2016-May-24 03:33N 33°46' W 118°13'  
2016-May-20 18:04N 33°46' W 118°13'0 0.0
2016-May-20 17:31N 33°46' W 118°13'0 0.0
2016-May-20 16:31N 33°46' W 118°13'0 0.0
2016-May-20 15:31N 33°46' W 118°13'0 0.0
2016-May-20 14:28N 33°46' W 118°13'0 0.0
2016-May-20 13:31N 33°46' W 118°13'0 0.0
2016-May-20 12:31N 33°46' W 118°13'0 0.0
2016-May-20 11:31N 33°46' W 118°13'0 0.0
2016-May-20 10:31N 33°46' W 118°13'0 0.0
2016-May-20 09:31N 33°46' W 118°13'0 0.0
2016-May-20 08:31N 33°46' W 118°13'0 0.0
2016-May-20 07:31N 33°46' W 118°13'0 0.0
2016-May-20 06:31N 33°46' W 118°13'0 0.0
2016-May-20 05:25N 33°46' W 118°13'0 0.0
2016-May-20 04:34N 33°46' W 118°13'0 0.0
2016-May-20 03:33N 33°46' W 118°13'0 0.0
2016-May-20 02:33N 33°46' W 118°13'0 0.0
2016-May-20 01:30N 33°46' W 118°13'0 0.0
2016-May-20 00:33N 33°46' W 118°13'0 0.0
2016-May-19 23:33N 33°46' W 118°13'0 0.0
2016-May-19 22:33N 33°46' W 118°13'0 0.0
2016-May-19 21:30N 33°46' W 118°13'0 0.0
2016-May-19 20:33N 33°46' W 118°13'0 0.3
2016-May-19 19:33N 33°46' W 118°13'12 3.6
2016-May-19 16:17N 33°49' W 118°27'1 0.9
2016-May-19 15:33N 33°49' W 118°26'0 0.3
2016-May-19 14:33N 33°49' W 118°26'13 5.4
2016-May-19 12:15N 33°40' W 118°15'6 7.9
2016-May-19 11:30N 33°46' W 118°13'1 0.7
2016-May-19 10:33N 33°46' W 118°13'0 0.0
2016-May-19 09:33N 33°46' W 118°13'0 0.0
2016-May-19 08:33N 33°46' W 118°13'  

Dump ship's entire track history